createdAt,value
2016-04-10T00:00:34.623Z,54.66
2016-04-10T00:01:34.782Z,54.66
2016-04-10T00:02:34.800Z,54.37
2016-04-10T00:03:34.819Z,54.18
2016-04-10T00:04:34.838Z,54.37
2016-04-10T00:05:34.855Z,54.37
2016-04-10T00:06:34.874Z,54.47
2016-04-10T00:07:34.892Z,54.37
2016-04-10T00:08:34.911Z,54.37
2016-04-10T00:09:34.929Z,54.18
2016-04-10T00:10:34.947Z,54.08
2016-04-10T00:11:34.965Z,54.37
2016-04-10T00:12:34.984Z,54.27
2016-04-10T00:13:34.987Z,54.08
2016-04-10T00:14:35.004Z,54.08
2016-04-10T00:15:35.039Z,54.27
2016-04-10T00:16:35.057Z,54.27
2016-04-10T00:17:35.059Z,54.37
2016-04-10T00:18:35.079Z,54.27
2016-04-10T00:19:35.112Z,54.37
2016-04-10T00:20:35.115Z,54.18
2016-04-10T00:21:35.133Z,54.18
2016-04-10T00:22:35.151Z,54.37
2016-04-10T00:23:35.184Z,54.08
2016-04-10T00:24:35.188Z,54.18
2016-04-10T00:25:35.206Z,53.99
2016-04-10T00:26:35.225Z,53.99
2016-04-10T00:27:35.242Z,54.47
2016-04-10T00:28:35.261Z,54.66
2016-04-10T00:29:35.264Z,54.75
2016-04-10T00:30:35.282Z,54.56
2016-04-10T00:31:35.316Z,54.56
2016-04-10T00:32:35.350Z,55.13
2016-04-10T00:33:35.353Z,55.13
2016-04-10T00:34:35.371Z,55.22
2016-04-10T00:35:35.389Z,55.04
2016-04-10T00:36:35.408Z,55.04
2016-04-10T00:37:35.410Z,55.42
2016-04-10T00:38:35.445Z,55.13
2016-04-10T00:39:35.447Z,54.85
2016-04-10T00:40:35.466Z,55.42
2016-04-10T00:41:35.499Z,55.42
2016-04-10T00:42:35.502Z,55.51
2016-04-10T00:43:35.521Z,55.32
2016-04-10T00:44:35.538Z,55.22
2016-04-10T00:45:35.541Z,55.42
2016-04-10T00:46:35.575Z,55.61
2016-04-10T00:47:35.593Z,55.42
2016-04-10T00:48:35.612Z,55.42
2016-04-10T00:49:35.615Z,55.51
2016-04-10T00:50:35.632Z,55.51
2016-04-10T00:51:35.667Z,55.9
2016-04-10T00:52:35.685Z,55.9
2016-04-10T00:53:35.563Z,56.27
2016-04-10T00:54:35.706Z,55.9
2016-04-10T00:55:35.725Z,56.09
2016-04-10T00:56:35.742Z,55.7
2016-04-10T00:57:35.761Z,56.18
2016-04-10T00:58:35.779Z,56.18
2016-04-10T00:59:35.797Z,55.7
2016-04-10T01:00:35.816Z,56.09
2016-04-10T01:01:35.850Z,55.8
2016-04-10T01:02:35.853Z,56.09
2016-04-10T01:03:35.872Z,56.27
2016-04-10T01:04:35.889Z,56.46
2016-04-10T01:05:35.918Z,56.75
2016-04-10T01:06:35.990Z,56.46
2016-04-10T01:07:36.050Z,56.37
2016-04-10T01:08:36.093Z,56.46
2016-04-10T01:09:36.151Z,56.65
2016-04-10T01:10:36.193Z,56.94
2016-04-10T01:11:36.241Z,57.32
2016-04-10T01:12:36.290Z,56.94
2016-04-10T01:13:36.292Z,57.23
2016-04-10T01:14:36.324Z,58.18
2016-04-10T01:15:36.335Z,58.08
2016-04-10T01:16:36.358Z,57.7
2016-04-10T01:17:36.398Z,57.99
2016-04-10T01:18:36.436Z,58.28
2016-04-10T01:19:36.444Z,58.25
2016-04-10T01:20:36.450Z,58.53
2016-04-10T01:21:36.470Z,58.25
2016-04-10T01:22:36.506Z,59.01
2016-04-10T01:23:36.510Z,58.91
2016-04-10T01:24:36.530Z,59.8
2016-04-10T01:25:36.551Z,59.58
2016-04-10T01:26:36.569Z,59.77
2016-04-10T01:27:36.588Z,59.99
2016-04-10T01:28:36.608Z,59.99
2016-04-10T01:29:36.627Z,59.58
2016-04-10T01:30:36.645Z,59.96
2016-04-10T01:31:36.664Z,59.96
2016-04-10T01:32:36.682Z,60.05
2016-04-10T01:33:36.702Z,60.44
2016-04-10T01:34:36.720Z,60.72
2016-04-10T01:35:36.723Z,60.72
2016-04-10T01:36:36.741Z,60.34
2016-04-10T01:37:36.962Z,60.34
2016-04-10T01:38:36.779Z,60.82
2016-04-10T01:39:36.812Z,60.82
2016-04-10T01:40:36.830Z,60.91
2016-04-10T01:41:36.832Z,60.63
2016-04-10T01:42:36.867Z,60.82
2016-04-10T01:43:36.870Z,60.72
2016-04-10T01:44:36.887Z,61.1
2016-04-10T01:45:36.907Z,61.19
2016-04-10T01:46:36.925Z,61.58
2016-04-10T01:47:36.943Z,61.38
2016-04-10T01:48:36.962Z,61.86
2016-04-10T01:49:36.979Z,61
2016-04-10T01:50:36.982Z,60.72
2016-04-10T01:51:37.000Z,61.1
2016-04-10T01:52:37.159Z,60.72
2016-04-10T01:53:37.053Z,60.72
2016-04-10T01:54:37.055Z,60.72
2016-04-10T01:55:37.074Z,60.63
2016-04-10T01:56:37.092Z,60.44
2016-04-10T01:57:37.110Z,60.63
2016-04-10T01:58:37.128Z,60.82
2016-04-10T01:59:37.147Z,60.82
2016-04-10T02:00:37.166Z,59.96
2016-04-10T02:01:37.183Z,60.63
2016-04-10T02:02:37.202Z,60.05
2016-04-10T02:03:37.221Z,60.15
2016-04-10T02:04:37.238Z,60.24
2016-04-10T02:05:37.241Z,60.34
2016-04-10T02:06:37.274Z,59.96
2016-04-10T02:07:37.356Z,60.05
2016-04-10T02:08:37.297Z,59.96
2016-04-10T02:09:37.315Z,59.86
2016-04-10T02:10:37.646Z,59.96
2016-04-10T02:11:37.351Z,59.86
2016-04-10T02:12:37.370Z,60.34
2016-04-10T02:13:37.388Z,60.15
2016-04-10T02:14:37.406Z,60.44
2016-04-10T02:15:37.424Z,60.34
2016-04-10T02:16:37.443Z,59.86
2016-04-10T02:17:37.461Z,59.58
2016-04-10T02:18:37.480Z,60.91
2016-04-10T02:19:37.498Z,60.72
2016-04-10T02:20:37.517Z,60.15
2016-04-10T02:21:37.519Z,60.44
2016-04-10T02:22:37.537Z,59.96
2016-04-10T02:23:37.853Z,59.96
2016-04-10T02:24:37.573Z,59.77
2016-04-10T02:25:37.608Z,59.86
2016-04-10T02:26:37.625Z,60.24
2016-04-10T02:27:37.628Z,59.96
2016-04-10T02:28:37.647Z,59.96
2016-04-10T02:29:37.681Z,60.24
2016-04-10T02:30:37.684Z,60.15
2016-04-10T02:31:37.702Z,59.67
2016-04-10T02:32:37.719Z,59.77
2016-04-10T02:33:37.755Z,59.48
2016-04-10T02:34:37.757Z,59.67
2016-04-10T02:35:37.775Z,59.48
2016-04-10T02:36:37.793Z,59.77
2016-04-10T02:37:37.812Z,59.96
2016-04-10T02:38:37.815Z,59.77
2016-04-10T02:39:37.848Z,59.58
2016-04-10T02:40:37.866Z,59.48
2016-04-10T02:41:37.869Z,59.77
2016-04-10T02:42:37.888Z,59.58
2016-04-10T02:43:37.907Z,59.48
2016-04-10T02:44:37.924Z,59.39
2016-04-10T02:45:37.943Z,59.77
2016-04-10T02:46:37.961Z,59.01
2016-04-10T02:47:37.979Z,59.01
2016-04-10T02:48:37.998Z,59.67
2016-04-10T02:49:38.015Z,59.67
2016-04-10T02:50:38.034Z,59.58
2016-04-10T02:51:38.036Z,59.1
2016-04-10T02:52:38.055Z,59.01
2016-04-10T02:53:38.386Z,59.01
2016-04-10T02:54:38.092Z,58.91
2016-04-10T02:55:38.111Z,59.2
2016-04-10T02:56:38.128Z,59.2
2016-04-10T02:57:38.147Z,59.67
2016-04-10T02:58:38.165Z,59.96
2016-04-10T02:59:38.199Z,59.58
2016-04-10T03:00:38.202Z,59.58
2016-04-10T03:01:38.219Z,59.77
2016-04-10T03:02:38.238Z,59.96
2016-04-10T03:03:38.258Z,59.77
2016-04-10T03:04:38.275Z,59.96
2016-04-10T03:05:38.293Z,59.96
2016-04-10T03:06:38.296Z,59.86
2016-04-10T03:07:38.314Z,60.44
2016-04-10T03:08:38.336Z,60.24
2016-04-10T03:09:38.369Z,59.86
2016-04-10T03:10:38.372Z,60.82
2016-04-10T03:11:38.391Z,60.34
2016-04-10T03:12:38.408Z,60.72
2016-04-10T03:13:38.427Z,60.63
2016-04-10T03:14:38.445Z,60.82
2016-04-10T03:15:38.448Z,61.38
2016-04-10T03:16:37.732Z,61.29
2016-04-10T03:17:38.501Z,61.77
2016-04-10T03:18:38.504Z,61.58
2016-04-10T03:19:38.365Z,61.86
2016-04-10T03:20:38.540Z,62.53
2016-04-10T03:21:38.558Z,62.05
2016-04-10T03:22:38.576Z,62.15
2016-04-10T03:23:38.610Z,62.24
2016-04-10T03:24:38.612Z,62.72
2016-04-10T03:25:38.632Z,63.1
2016-04-10T03:26:38.634Z,63.57
2016-04-10T03:27:38.668Z,62.72
2016-04-10T03:28:38.687Z,63.39
2016-04-10T03:29:38.689Z,63.1
2016-04-10T03:30:38.723Z,63.57
2016-04-10T03:31:38.742Z,63.39
2016-04-10T03:32:38.744Z,63.83
2016-04-10T03:33:38.762Z,63.86
2016-04-10T03:34:38.780Z,63.76
2016-04-10T03:35:38.799Z,63.67
2016-04-10T03:36:38.817Z,64.15
2016-04-10T03:37:38.835Z,64.15
2016-04-10T03:38:38.854Z,64.9
2016-04-10T03:39:38.872Z,64.34
2016-04-10T03:40:38.875Z,64.15
2016-04-10T03:41:38.941Z,64.53
2016-04-10T03:42:38.943Z,64.34
2016-04-10T03:43:38.992Z,64.9
2016-04-10T03:44:38.979Z,64.9
2016-04-10T03:45:38.982Z,65
2016-04-10T03:46:38.985Z,65.1
2016-04-10T03:47:39.003Z,64.53
2016-04-10T03:48:39.022Z,65
2016-04-10T03:49:39.039Z,64.9
2016-04-10T03:50:39.058Z,65.38
2016-04-10T03:51:39.077Z,65.86
2016-04-10T03:52:39.095Z,65.58
2016-04-10T03:53:39.113Z,65.38
2016-04-10T03:54:39.131Z,65.86
2016-04-10T03:55:39.149Z,65.67
2016-04-10T03:56:39.168Z,65.19
2016-04-10T03:57:39.171Z,65.38
2016-04-10T03:58:39.048Z,65.19
2016-04-10T03:59:39.222Z,65.29
2016-04-10T04:00:39.225Z,65.67
2016-04-10T04:01:39.245Z,65.38
2016-04-10T04:02:39.262Z,65.29
2016-04-10T04:03:39.281Z,65.83
2016-04-10T04:04:39.298Z,65.67
2016-04-10T04:05:39.317Z,65.29
2016-04-10T04:06:39.336Z,65
2016-04-10T04:07:39.353Z,65.19
2016-04-10T04:08:39.356Z,65.77
2016-04-10T04:09:39.375Z,65.86
2016-04-10T04:10:39.409Z,65.48
2016-04-10T04:11:39.412Z,65.64
2016-04-10T04:12:39.430Z,65.58
2016-04-10T04:13:39.448Z,65.67
2016-04-10T04:14:39.466Z,65.45
2016-04-10T04:15:39.485Z,65.83
2016-04-10T04:16:39.503Z,65.67
2016-04-10T04:17:39.521Z,65.77
2016-04-10T04:18:39.540Z,65.86
2016-04-10T04:19:39.542Z,65.45
2016-04-10T04:20:39.576Z,66.11
2016-04-10T04:21:39.579Z,66.3
2016-04-10T04:22:39.597Z,66.11
2016-04-10T04:23:39.616Z,66.2
2016-04-10T04:24:39.634Z,66.2
2016-04-10T04:25:39.652Z,66.2
2016-04-10T04:26:39.671Z,66.59
2016-04-10T04:27:39.689Z,66.02
2016-04-10T04:28:39.707Z,65.92
2016-04-10T04:29:39.773Z,66.49
2016-04-10T04:30:39.775Z,66.2
2016-04-10T04:31:39.778Z,66.3
2016-04-10T04:32:39.781Z,65.92
2016-04-10T04:33:39.799Z,65.92
2016-04-10T04:34:39.067Z,66.2
2016-04-10T04:35:40.179Z,66.2
2016-04-10T04:36:39.869Z,66.02
2016-04-10T04:37:39.903Z,66.14
2016-04-10T04:38:39.875Z,66.2
2016-04-10T04:39:39.892Z,66.2
2016-04-10T04:40:39.911Z,66.78
2016-04-10T04:41:39.930Z,66.97
2016-04-10T04:42:39.948Z,65.92
2016-04-10T04:43:39.950Z,66.68
2016-04-10T04:44:39.984Z,66.59
2016-04-10T04:45:39.988Z,66.39
2016-04-10T04:46:40.021Z,66.68
2016-04-10T04:47:43.023Z,67.07
2016-04-10T04:48:40.042Z,66.78
2016-04-10T04:49:40.060Z,66.78
2016-04-10T04:50:40.084Z,66.2
2016-04-10T04:51:40.102Z,66.3
2016-04-10T04:52:40.104Z,66.11
2016-04-10T04:53:40.123Z,66.2
2016-04-10T04:54:40.001Z,66.11
2016-04-10T04:55:40.160Z,66.02
2016-04-10T04:56:40.178Z,66.2
2016-04-10T04:57:40.195Z,65.92
2016-04-10T04:58:40.215Z,66.87
2016-04-10T04:59:40.233Z,66.49
2016-04-10T05:00:40.250Z,66.68
2016-04-10T05:01:40.270Z,66.2
2016-04-10T05:02:40.287Z,66.39
2016-04-10T05:03:40.306Z,66.3
2016-04-10T05:04:40.325Z,66.68
2016-04-10T05:05:40.327Z,66.49
2016-04-10T05:06:40.345Z,66.97
2016-04-10T05:07:40.364Z,66.68
2016-04-10T05:08:40.382Z,66.68
2016-04-10T05:09:40.400Z,67.1
2016-04-10T05:10:40.419Z,66.78
2016-04-10T05:11:40.436Z,67.07
2016-04-10T05:12:40.456Z,66.68
2016-04-10T05:13:40.474Z,67.07
2016-04-10T05:14:40.492Z,67.1
2016-04-10T05:15:40.510Z,66.62
2016-04-10T05:16:40.513Z,66.78
2016-04-10T05:17:40.531Z,66.39
2016-04-10T05:18:40.550Z,66.39
2016-04-10T05:19:40.583Z,66.49
2016-04-10T05:20:40.585Z,66.49
2016-04-10T05:21:40.605Z,66.78
2016-04-10T05:22:54.716Z,66.97
2016-04-10T05:23:40.640Z,67.19
2016-04-10T05:24:40.660Z,66.43
2016-04-10T05:25:40.678Z,66.11
2016-04-10T05:26:40.681Z,66.97
2016-04-10T05:27:40.714Z,66.87
2016-04-10T05:28:40.732Z,66.78
2016-04-10T05:29:40.751Z,66.24
2016-04-10T05:30:41.050Z,66.62
2016-04-10T05:31:40.772Z,66.24
2016-04-10T05:32:40.806Z,65.95
2016-04-10T05:33:40.808Z,66.05
2016-04-10T05:34:40.828Z,65.58
2016-04-10T05:35:40.845Z,65.58
2016-04-10T05:36:40.863Z,66.24
2016-04-10T05:37:40.898Z,66.14
2016-04-10T05:38:40.916Z,65.67
2016-04-10T05:39:40.902Z,65.48
2016-04-10T05:40:40.937Z,65.38
2016-04-10T05:41:40.939Z,65.67
2016-04-10T05:42:40.958Z,65.77
2016-04-10T05:43:40.977Z,65.95
2016-04-10T05:44:40.994Z,65.48
2016-04-10T05:45:41.013Z,65.86
2016-04-10T05:46:41.327Z,65.48
2016-04-10T05:47:41.049Z,65.29
2016-04-10T05:48:41.068Z,65.1
2016-04-10T05:49:41.368Z,65.1
2016-04-10T05:50:41.105Z,65.58
2016-04-10T05:51:41.123Z,64.53
2016-04-10T05:52:41.141Z,63.57
2016-04-10T05:53:41.159Z,63.57
2016-04-10T05:54:41.162Z,63.57
2016-04-10T05:55:41.180Z,63.1
2016-04-10T05:56:41.214Z,62.72
2016-04-10T05:57:41.218Z,62.72
2016-04-10T05:58:41.235Z,62.81
2016-04-10T05:59:41.253Z,62.24
2016-04-10T06:00:41.272Z,61.61
2016-04-10T06:01:41.290Z,62.15
2016-04-10T06:02:41.308Z,61.96
2016-04-10T06:03:41.326Z,61.99
2016-04-10T06:04:41.345Z,61.22
2016-04-10T06:05:41.364Z,61.51
2016-04-10T06:06:41.381Z,61.32
2016-04-10T06:07:41.384Z,61.04
2016-04-10T06:08:41.481Z,61.22
2016-04-10T06:09:41.452Z,60.94
2016-04-10T06:10:41.892Z,60.85
2016-04-10T06:11:41.473Z,61.32
2016-04-10T06:12:41.475Z,60.66
2016-04-10T06:13:41.495Z,60.66
2016-04-10T06:14:41.513Z,60.75
2016-04-10T06:15:41.546Z,60.75
2016-04-10T06:16:41.549Z,60.85
2016-04-10T06:17:41.568Z,60.75
2016-04-10T06:18:41.585Z,60.94
2016-04-10T06:19:41.604Z,60.46
2016-04-10T06:20:41.622Z,60.3
2016-04-10T06:21:41.641Z,60.08
2016-04-10T06:22:41.664Z,60.66
2016-04-10T06:23:41.952Z,60.69
2016-04-10T06:24:41.694Z,60.88
2016-04-10T06:25:41.734Z,60.88
2016-04-10T06:26:41.725Z,60.78
2016-04-10T06:27:41.744Z,60.78
2016-04-10T06:28:41.762Z,60.49
2016-04-10T06:29:41.780Z,60.49
2016-04-10T06:30:41.783Z,60.3
2016-04-10T06:31:41.817Z,60.59
2016-04-10T06:32:41.820Z,60.4
2016-04-10T06:33:41.854Z,60.21
2016-04-10T06:34:41.872Z,60.3
2016-04-10T06:35:41.874Z,60.11
2016-04-10T06:36:41.893Z,59.83
2016-04-10T06:37:41.912Z,59.83
2016-04-10T06:38:42.007Z,59.45
2016-04-10T06:39:42.259Z,59.16
2016-04-10T06:40:41.967Z,59.35
2016-04-10T06:41:42.000Z,58.81
2016-04-10T06:42:42.003Z,58.52
2016-04-10T06:43:42.068Z,58.59
2016-04-10T06:44:42.039Z,58.72
2016-04-10T06:45:42.105Z,58.52
2016-04-10T06:46:42.076Z,58.52
2016-04-10T06:47:42.188Z,58.62
2016-04-10T06:48:42.113Z,58.24
2016-04-10T06:49:42.178Z,58.24
2016-04-10T06:50:42.165Z,58.04
2016-04-10T06:51:42.230Z,57.86
2016-04-10T06:52:42.186Z,57.95
2016-04-10T06:53:42.298Z,57.76
2016-04-10T06:54:42.222Z,57.76
2016-04-10T06:55:42.288Z,57.86
2016-04-10T06:56:42.274Z,57
2016-04-10T06:57:42.356Z,57.09
2016-04-10T06:58:42.296Z,57.19
2016-04-10T06:59:42.345Z,57
2016-04-10T07:00:42.333Z,56.81
2016-04-10T07:01:42.351Z,56.62
2016-04-10T07:02:42.368Z,56.71
2016-04-10T07:03:42.388Z,56.43
2016-04-10T07:04:42.422Z,57.09
2016-04-10T07:05:42.440Z,56.71
2016-04-10T07:06:42.457Z,57
2016-04-10T07:07:42.461Z,57.28
2016-04-10T07:08:42.510Z,57
2016-04-10T07:09:42.497Z,57.09
2016-04-10T07:10:42.515Z,57.38
2016-04-10T07:11:42.550Z,58.14
2016-04-10T07:12:42.567Z,57.67
2016-04-10T07:13:42.587Z,57.86
2016-04-10T07:14:42.604Z,57.57
2016-04-10T07:15:42.607Z,58.04
2016-04-10T07:16:42.625Z,57.86
2016-04-10T07:17:42.659Z,57.95
2016-04-10T07:18:42.678Z,57.38
2016-04-10T07:19:42.696Z,57.38
2016-04-10T07:20:42.714Z,57.31
2016-04-10T07:21:42.748Z,56.93
2016-04-10T07:22:42.735Z,57.03
2016-04-10T07:23:42.817Z,56.93
2016-04-10T07:24:42.772Z,56.36
2016-04-10T07:25:42.791Z,55.98
2016-04-10T07:26:42.808Z,55.98
2016-04-10T07:27:42.827Z,56.26
2016-04-10T07:28:42.846Z,56.46
2016-04-10T07:29:42.879Z,56.55
2016-04-10T07:30:42.897Z,56.26
2016-04-10T07:31:42.900Z,56.07
2016-04-10T07:32:42.934Z,55.98
2016-04-10T07:33:42.953Z,55.69
2016-04-10T07:34:42.971Z,55.79
2016-04-10T07:35:42.990Z,56.26
2016-04-10T07:36:42.992Z,56.74
2016-04-10T07:37:43.026Z,56.55
2016-04-10T07:38:43.075Z,56.36
2016-04-10T07:39:43.062Z,56.36
2016-04-10T07:40:43.080Z,56.46
2016-04-10T07:41:43.099Z,56.36
2016-04-10T07:42:43.117Z,56.46
2016-04-10T07:43:43.136Z,56.36
2016-04-10T07:44:43.154Z,56.55
2016-04-10T07:45:43.172Z,56.17
2016-04-10T07:46:43.190Z,56.65
2016-04-10T07:47:43.209Z,56.36
2016-04-10T07:48:43.228Z,56.55
2016-04-10T07:49:43.261Z,56.46
2016-04-10T07:50:43.263Z,56.74
2016-04-10T07:51:43.282Z,57.03
2016-04-10T07:52:43.300Z,56.84
2016-04-10T07:53:43.319Z,56.55
2016-04-10T07:54:43.337Z,56.55
2016-04-10T07:55:43.355Z,56.17
2016-04-10T07:56:43.374Z,56.36
2016-04-10T07:57:43.392Z,56.65
2016-04-10T07:58:43.410Z,56.65
2016-04-10T07:59:43.444Z,56.65
2016-04-10T08:00:43.447Z,56.84
2016-04-10T08:01:43.465Z,56.93
2016-04-10T08:02:43.484Z,56.84
2016-04-10T08:03:43.502Z,56.07
2016-04-10T08:04:43.521Z,56.07
2016-04-10T08:05:43.538Z,56.55
2016-04-10T08:06:43.573Z,56.55
2016-04-10T08:07:43.575Z,56.55
2016-04-10T08:08:43.593Z,56.46
2016-04-10T08:09:43.627Z,56.36
2016-04-10T08:10:43.629Z,56.46
2016-04-10T08:11:43.649Z,56.65
2016-04-10T08:12:43.682Z,56.46
2016-04-10T08:13:43.684Z,56.26
2016-04-10T08:14:43.704Z,56.07
2016-04-10T08:15:43.737Z,55.6
2016-04-10T08:16:43.755Z,55.88
2016-04-10T08:17:43.789Z,56.17
2016-04-10T08:18:43.808Z,56.26
2016-04-10T08:19:43.795Z,55.91
2016-04-10T08:20:43.845Z,56.1
2016-04-10T08:21:43.097Z,56.1
2016-04-10T08:22:43.866Z,56.01
2016-04-10T08:23:43.883Z,55.72
2016-04-10T08:24:43.917Z,55.53
2016-04-10T08:25:43.904Z,54.96
2016-04-10T08:26:43.939Z,55.43
2016-04-10T08:27:43.957Z,55.15
2016-04-10T08:28:43.975Z,55.34
2016-04-10T08:29:43.994Z,55.43
2016-04-10T08:30:44.012Z,54.96
2016-04-10T08:31:44.030Z,54.67
2016-04-10T08:32:44.064Z,54.38
2016-04-10T08:33:44.066Z,54.67
2016-04-10T08:34:44.101Z,54.86
2016-04-10T08:35:44.104Z,54.38
2016-04-10T08:36:44.121Z,54.29
2016-04-10T08:37:44.157Z,54.13
2016-04-10T08:38:44.174Z,53.45
2016-04-10T08:39:44.192Z,53.27
2016-04-10T08:40:44.211Z,52.5
2016-04-10T08:41:44.229Z,52.4
2016-04-10T08:42:44.247Z,52.22
2016-04-10T08:43:44.282Z,52.22
2016-04-10T08:44:44.300Z,52.03
2016-04-10T08:45:44.303Z,51.76
2016-04-10T08:46:44.368Z,51.86
2016-04-10T08:47:44.370Z,51
2016-04-10T08:48:44.403Z,50.9
2016-04-10T08:49:44.423Z,51
2016-04-10T08:50:44.409Z,51
2016-04-10T08:51:44.458Z,50.62
2016-04-10T08:52:44.446Z,49.88
2016-04-10T08:53:44.464Z,49.69
2016-04-10T08:54:44.483Z,49.59
2016-04-10T08:55:44.532Z,49.4
2016-04-10T08:56:44.536Z,49.21
2016-04-10T08:57:44.553Z,49.02
2016-04-10T08:58:44.571Z,48.83
2016-04-10T08:59:44.591Z,49.02
2016-04-10T09:00:44.608Z,48.93
2016-04-10T09:01:44.627Z,48.57
2016-04-10T09:02:44.644Z,48.47
2016-04-10T09:03:44.679Z,47.99
2016-04-10T09:04:44.697Z,48.28
2016-04-10T09:05:44.699Z,48.57
2016-04-10T09:06:44.718Z,48.57
2016-04-10T09:07:44.955Z,47.99
2016-04-10T09:08:44.770Z,47.71
2016-04-10T09:09:44.789Z,47.03
2016-04-10T09:10:44.807Z,47.06
2016-04-10T09:11:44.825Z,46.96
2016-04-10T09:12:44.843Z,46.39
2016-04-10T09:13:44.862Z,46.1
2016-04-10T09:14:44.896Z,46.48
2016-04-10T09:15:44.914Z,45.91
2016-04-10T09:16:44.932Z,45.24
2016-04-10T09:17:44.951Z,45.07
2016-04-10T09:18:44.969Z,45.07
2016-04-10T09:19:44.987Z,44.4
2016-04-10T09:20:45.021Z,44.12
2016-04-10T09:21:45.040Z,43.92
2016-04-10T09:22:45.058Z,44.31
2016-04-10T09:23:45.076Z,44.69
2016-04-10T09:24:45.111Z,44.31
2016-04-10T09:25:45.113Z,44.12
2016-04-10T09:26:45.178Z,43.35
2016-04-10T09:27:45.180Z,43.16
2016-04-10T09:28:45.183Z,42.97
2016-04-10T09:29:45.233Z,43.83
2016-04-10T09:30:45.267Z,43.35
2016-04-10T09:31:45.301Z,42.4
2016-04-10T09:32:45.319Z,42.2
2016-04-10T09:33:45.338Z,42.58
2016-04-10T09:34:45.355Z,42.77
2016-04-10T09:35:45.749Z,42.49
2016-04-10T09:36:45.377Z,42.49
2016-04-10T09:37:45.458Z,42.77
2016-04-10T09:38:45.382Z,43.16
2016-04-10T09:39:45.463Z,42.58
2016-04-10T09:40:45.435Z,42.49
2016-04-10T09:41:45.484Z,42.3
2016-04-10T09:42:45.471Z,41.91
2016-04-10T09:43:45.521Z,42.58
2016-04-10T09:44:45.523Z,43.16
2016-04-10T09:45:45.542Z,42.87
2016-04-10T09:46:45.560Z,43.35
2016-04-10T09:47:45.594Z,43.04
2016-04-10T09:48:45.612Z,43.35
2016-04-10T09:49:45.631Z,43.35
2016-04-10T09:50:45.649Z,42.85
2016-04-10T09:51:45.667Z,43.14
2016-04-10T09:52:45.686Z,42.97
2016-04-10T09:53:45.719Z,43.06
2016-04-10T09:54:45.738Z,42.49
2016-04-10T09:55:45.756Z,42.49
2016-04-10T09:56:45.775Z,42.49
2016-04-10T09:57:45.793Z,42.68
2016-04-10T09:58:45.811Z,41.72
2016-04-10T09:59:45.861Z,41.63
2016-04-10T10:00:45.863Z,42.77
2016-04-10T10:01:45.882Z,42.2
2016-04-10T10:02:45.900Z,41.82
2016-04-10T10:03:45.918Z,41.82
2016-04-10T10:04:45.952Z,41.34
2016-04-10T10:05:45.971Z,42.11
2016-04-10T10:06:45.989Z,41.15
2016-04-10T10:07:46.024Z,40.77
2016-04-10T10:08:46.029Z,40.77
2016-04-10T10:09:46.064Z,41.24
2016-04-10T10:10:46.082Z,40.58
2016-04-10T10:11:46.114Z,40.86
2016-04-10T10:12:46.191Z,40.77
2016-04-10T10:13:46.266Z,40.67
2016-04-10T10:14:46.326Z,40.59
2016-04-10T10:15:46.371Z,40.69
2016-04-10T10:16:46.429Z,40.31
2016-04-10T10:17:46.462Z,38.96
2016-04-10T10:18:46.496Z,38.78
2016-04-10T10:19:46.530Z,38.32
2016-04-10T10:20:46.579Z,37.45
2016-04-10T10:21:46.606Z,37.55
2016-04-10T10:22:46.630Z,37.55
2016-04-10T10:23:46.654Z,38.03
2016-04-10T10:24:46.693Z,38.22
2016-04-10T10:25:46.701Z,37.93
2016-04-10T10:26:46.737Z,38.98
2016-04-10T10:27:46.758Z,38.7
2016-04-10T10:28:46.778Z,38.89
2016-04-10T10:29:46.814Z,38.7
2016-04-10T10:30:46.834Z,38.79
2016-04-10T10:31:46.854Z,38.98
2016-04-10T10:32:46.874Z,38.51
2016-04-10T10:33:46.908Z,38.79
2016-04-10T10:34:46.911Z,38.89
2016-04-10T10:35:46.946Z,38.6
2016-04-10T10:36:46.965Z,38.79
2016-04-10T10:37:46.983Z,39.08
2016-04-10T10:38:47.033Z,38.79
2016-04-10T10:39:47.036Z,37.55
2016-04-10T10:40:47.055Z,37.36
2016-04-10T10:41:47.073Z,37.45
2016-04-10T10:42:47.091Z,37.74
2016-04-10T10:43:47.125Z,37.45
2016-04-10T10:44:47.144Z,38.22
2016-04-10T10:45:47.163Z,37.55
2016-04-10T10:46:47.181Z,38.03
2016-04-10T10:47:47.214Z,37.93
2016-04-10T10:48:47.233Z,37.74
2016-04-10T10:49:47.251Z,36.98
2016-04-10T10:50:47.269Z,37.16
2016-04-10T10:51:47.304Z,37.07
2016-04-10T10:52:47.321Z,37.26
2016-04-10T10:53:47.340Z,36.69
2016-04-10T10:54:47.373Z,36.22
2016-04-10T10:55:47.376Z,35.65
2016-04-10T10:56:47.395Z,35.08
2016-04-10T10:57:47.428Z,36.04
2016-04-10T10:58:47.447Z,36.32
2016-04-10T10:59:47.465Z,36.88
2016-04-10T11:00:47.484Z,36.98
2016-04-10T11:01:47.518Z,37.16
2016-04-10T11:02:47.536Z,36.79
2016-04-10T11:03:47.554Z,35.83
2016-04-10T11:04:47.589Z,34.98
2016-04-10T11:05:47.591Z,34.96
2016-04-10T11:06:47.625Z,35.46
2016-04-10T11:07:47.643Z,35.25
2016-04-10T11:08:47.662Z,35.55
2016-04-10T11:09:47.681Z,35.84
2016-04-10T11:10:47.714Z,36.02
2016-04-10T11:11:47.733Z,35.94
2016-04-10T11:12:47.751Z,35.75
2016-04-10T11:13:47.816Z,35.65
2016-04-10T11:14:47.819Z,35.75
2016-04-10T11:15:47.868Z,36.22
2016-04-10T11:16:47.886Z,36.04
2016-04-10T11:17:48.170Z,35.84
2016-04-10T11:18:47.922Z,35.75
2016-04-10T11:19:47.941Z,35.84
2016-04-10T11:20:47.927Z,35.94
2016-04-10T11:21:47.962Z,35.94
2016-04-10T11:22:47.980Z,36.04
2016-04-10T11:23:47.999Z,36.13
2016-04-10T11:24:48.018Z,35.84
2016-04-10T11:25:48.035Z,34.98
2016-04-10T11:26:48.069Z,34.52
2016-04-10T11:27:48.087Z,34.42
2016-04-10T11:28:48.106Z,34.33
2016-04-10T11:29:48.140Z,34.33
2016-04-10T11:30:48.158Z,34.88
2016-04-10T11:31:48.176Z,35.46
2016-04-10T11:32:48.194Z,35.27
2016-04-10T11:33:48.228Z,35.46
2016-04-10T11:34:48.247Z,35.77
2016-04-10T11:35:48.265Z,35
2016-04-10T11:36:48.283Z,34.61
2016-04-10T11:37:48.318Z,34.14
2016-04-10T11:38:48.336Z,34.61
2016-04-10T11:39:48.354Z,34.71
2016-04-10T11:40:48.389Z,34.71
2016-04-10T11:41:48.406Z,34.52
2016-04-10T11:42:48.425Z,34.44
2016-04-10T11:43:48.443Z,33.39
2016-04-10T11:44:48.461Z,33.48
2016-04-10T11:45:48.495Z,33.58
2016-04-10T11:46:48.514Z,33.65
2016-04-10T11:47:48.533Z,34.04
2016-04-10T11:48:48.550Z,34.04
2016-04-10T11:49:48.585Z,34.42
2016-04-10T11:50:48.619Z,34.25
2016-04-10T11:51:48.636Z,34.42
2016-04-10T11:52:48.639Z,34.23
2016-04-10T11:53:48.688Z,34.33
2016-04-10T11:54:48.691Z,34.33
2016-04-10T11:55:48.726Z,34.61
2016-04-10T11:56:48.743Z,34.14
2016-04-10T11:57:48.762Z,33.65
2016-04-10T11:58:48.780Z,33.47
2016-04-10T11:59:48.814Z,32.9
2016-04-10T12:00:48.832Z,32.98
2016-04-10T12:01:48.851Z,32.81
2016-04-10T12:02:48.885Z,33.09
2016-04-10T12:03:48.904Z,33
2016-04-10T12:04:48.921Z,33.19
2016-04-10T12:05:48.956Z,32.9
2016-04-10T12:06:48.973Z,32.62
2016-04-10T12:07:48.992Z,33.09
2016-04-10T12:08:49.026Z,32.33
2016-04-10T12:09:49.028Z,31.75
2016-04-10T12:10:49.062Z,32.14
2016-04-10T12:11:49.080Z,32.71
2016-04-10T12:12:49.099Z,33.09
2016-04-10T12:13:49.117Z,32.33
2016-04-10T12:14:49.151Z,32.23
2016-04-10T12:15:49.170Z,32.23
2016-04-10T12:16:49.188Z,32.25
2016-04-10T12:17:49.222Z,31.1
2016-04-10T12:18:49.241Z,31.08
2016-04-10T12:19:49.258Z,31.46
2016-04-10T12:21:49.295Z,31.75
2016-04-10T12:22:49.330Z,31.66
2016-04-10T12:23:49.347Z,31.75
2016-04-10T12:24:49.429Z,32.04
2016-04-10T12:25:49.400Z,31.67
2016-04-10T12:26:49.419Z,31.67
2016-04-10T12:27:49.452Z,30.52
2016-04-10T12:28:49.471Z,30.89
2016-04-10T12:29:49.489Z,30.7
2016-04-10T12:30:49.507Z,31.16
2016-04-10T12:31:49.526Z,31.35
2016-04-10T12:32:49.871Z,31.84
2016-04-10T12:33:49.578Z,31.85
2016-04-10T12:34:49.611Z,32.9
2016-04-10T12:35:49.614Z,32.14
2016-04-10T12:36:49.648Z,31.56
2016-04-10T12:37:49.666Z,30.89
2016-04-10T12:38:49.700Z,30.6
2016-04-10T12:39:49.781Z,30.32
2016-04-10T12:40:49.737Z,30.51
2016-04-10T12:41:49.756Z,30.02
2016-04-10T12:42:49.789Z,29.74
2016-04-10T12:43:49.808Z,29.74
2016-04-10T12:44:49.825Z,29.45
2016-04-10T12:45:49.688Z,30.22
2016-04-10T12:46:49.878Z,30.6
2016-04-10T12:47:49.896Z,30.12
2016-04-10T12:48:49.914Z,30.7
2016-04-10T12:49:49.932Z,30.32
2016-04-10T12:50:49.216Z,29.64
2016-04-10T12:51:49.985Z,29.74
2016-04-10T12:52:50.004Z,30.12
2016-04-10T12:53:50.085Z,30.32
2016-04-10T12:54:50.103Z,30.41
2016-04-10T12:55:50.121Z,30.51
2016-04-10T12:56:50.093Z,30.43
2016-04-10T12:57:50.127Z,31